sensor_id;sensor_type;location;lat;lon;timestamp;P1;durP1;ratioP1;P2;durP2;ratioP2
44036;SDS011;56187;-37.670;-63.542;2022-07-23T00:01:54;11.18;;;2.28;;
44036;SDS011;56187;-37.670;-63.542;2022-07-23T00:04:21;8.18;;;1.67;;
44036;SDS011;56187;-37.670;-63.542;2022-07-23T00:06:48;16.05;;;2.63;;
44036;SDS011;56187;-37.670;-63.542;2022-07-23T00:09:17;11.38;;;1.67;;
44036;SDS011;56187;-37.670;-63.542;2022-07-23T00:11:44;12.05;;;2.33;;
44036;SDS011;56187;-37.670;-63.542;2022-07-23T00:14:14;18.80;;;2.83;;
44036;SDS011;56187;-37.670;-63.542;2022-07-23T00:16:41;21.92;;;2.67;;
44036;SDS011;56187;-37.670;-63.542;2022-07-23T00:19:08;11.63;;;2.30;;
44036;SDS011;56187;-37.670;-63.542;2022-07-23T00:21:36;9.52;;;1.73;;
44036;SDS011;56187;-37.670;-63.542;2022-07-23T00:24:03;9.27;;;2.10;;
44036;SDS011;56187;-37.670;-63.542;2022-07-23T00:26:30;11.68;;;2.72;;
44036;SDS011;56187;-37.670;-63.542;2022-07-23T00:28:57;12.80;;;2.40;;
44036;SDS011;56187;-37.670;-63.542;2022-07-23T00:31:25;16.95;;;2.47;;
44036;SDS011;56187;-37.670;-63.542;2022-07-23T00:33:53;6.68;;;1.92;;
44036;SDS011;56187;-37.670;-63.542;2022-07-23T00:36:26;8.57;;;1.80;;
44036;SDS011;56187;-37.670;-63.542;2022-07-23T00:38:56;6.95;;;2.22;;
44036;SDS011;56187;-37.670;-63.542;2022-07-23T00:41:23;6.43;;;2.00;;
44036;SDS011;56187;-37.670;-63.542;2022-07-23T00:43:50;9.77;;;1.90;;
44036;SDS011;56187;-37.670;-63.542;2022-07-23T00:46:21;10.60;;;2.40;;
44036;SDS011;56187;-37.670;-63.542;2022-07-23T00:48:50;11.73;;;2.45;;
44036;SDS011;56187;-37.670;-63.542;2022-07-23T00:51:17;9.23;;;1.83;;
44036;SDS011;56187;-37.670;-63.542;2022-07-23T00:53:44;14.85;;;1.70;;
44036;SDS011;56187;-37.670;-63.542;2022-07-23T00:56:12;12.40;;;1.90;;
44036;SDS011;56187;-37.670;-63.542;2022-07-23T00:58:39;14.23;;;1.88;;
44036;SDS011;56187;-37.670;-63.542;2022-07-23T01:01:09;5.50;;;1.30;;
44036;SDS011;56187;-37.670;-63.542;2022-07-23T01:03:37;7.63;;;1.50;;
44036;SDS011;56187;-37.670;-63.542;2022-07-23T01:06:04;11.95;;;1.60;;
44036;SDS011;56187;-37.670;-63.542;2022-07-23T01:08:33;11.00;;;1.60;;
44036;SDS011;56187;-37.670;-63.542;2022-07-23T01:11:00;2.90;;;1.50;;
44036;SDS011;56187;-37.670;-63.542;2022-07-23T01:13:27;10.43;;;2.35;;
44036;SDS011;56187;-37.670;-63.542;2022-07-23T01:15:54;8.13;;;1.60;;
44036;SDS011;56187;-37.670;-63.542;2022-07-23T01:18:22;6.47;;;1.40;;
44036;SDS011;56187;-37.670;-63.542;2022-07-23T01:20:49;10.57;;;2.33;;
44036;SDS011;56187;-37.670;-63.542;2022-07-23T01:23:16;4.90;;;1.42;;
44036;SDS011;56187;-37.670;-63.542;2022-07-23T01:25:49;12.88;;;1.50;;
44036;SDS011;56187;-37.670;-63.542;2022-07-23T01:28:19;14.60;;;2.33;;
44036;SDS011;56187;-37.670;-63.542;2022-07-23T01:30:47;4.05;;;1.70;;
44036;SDS011;56187;-37.670;-63.542;2022-07-23T01:33:16;6.15;;;1.67;;
44036;SDS011;56187;-37.670;-63.542;2022-07-23T01:35:43;6.45;;;2.00;;
44036;SDS011;56187;-37.670;-63.542;2022-07-23T01:38:10;7.90;;;1.83;;
44036;SDS011;56187;-37.670;-63.542;2022-07-23T01:40:37;6.07;;;2.20;;
44036;SDS011;56187;-37.670;-63.542;2022-07-23T01:43:06;8.55;;;2.47;;
44036;SDS011;56187;-37.670;-63.542;2022-07-23T01:45:33;11.65;;;2.10;;
44036;SDS011;56187;-37.670;-63.542;2022-07-23T01:48:00;4.20;;;1.70;;
44036;SDS011;56187;-37.670;-63.542;2022-07-23T01:50:27;3.15;;;1.98;;
44036;SDS011;56187;-37.670;-63.542;2022-07-23T01:52:54;6.95;;;2.53;;
44036;SDS011;56187;-37.670;-63.542;2022-07-23T01:55:21;8.90;;;2.63;;
44036;SDS011;56187;-37.670;-63.542;2022-07-23T01:57:48;11.52;;;3.00;;
44036;SDS011;56187;-37.670;-63.542;2022-07-23T02:00:19;12.77;;;2.63;;
44036;SDS011;56187;-37.670;-63.542;2022-07-23T02:02:47;15.90;;;3.13;;
44036;SDS011;56187;-37.670;-63.542;2022-07-23T02:05:14;7.90;;;2.83;;
44036;SDS011;56187;-37.670;-63.542;2022-07-23T02:07:41;11.50;;;2.80;;
44036;SDS011;56187;-37.670;-63.542;2022-07-23T02:10:08;10.52;;;2.58;;
44036;SDS011;56187;-37.670;-63.542;2022-07-23T02:12:35;5.25;;;2.55;;
44036;SDS011;56187;-37.670;-63.542;2022-07-23T02:15:03;9.90;;;2.78;;
44036;SDS011;56187;-37.670;-63.542;2022-07-23T02:17:30;8.43;;;3.03;;
44036;SDS011;56187;-37.670;-63.542;2022-07-23T02:19:59;9.48;;;2.60;;
44036;SDS011;56187;-37.670;-63.542;2022-07-23T02:22:26;12.77;;;2.93;;
44036;SDS011;56187;-37.670;-63.542;2022-07-23T02:24:53;14.90;;;3.03;;
44036;SDS011;56187;-37.670;-63.542;2022-07-23T02:27:20;14.52;;;2.90;;
44036;SDS011;56187;-37.670;-63.542;2022-07-23T02:29:49;7.35;;;2.90;;
44036;SDS011;56187;-37.670;-63.542;2022-07-23T02:32:17;18.75;;;3.35;;
44036;SDS011;56187;-37.670;-63.542;2022-07-23T02:34:47;10.85;;;3.70;;
44036;SDS011;56187;-37.670;-63.542;2022-07-23T02:37:14;12.55;;;4.00;;
44036;SDS011;56187;-37.670;-63.542;2022-07-23T02:39:42;11.88;;;3.60;;
44036;SDS011;56187;-37.670;-63.542;2022-07-23T02:42:09;11.23;;;4.47;;
44036;SDS011;56187;-37.670;-63.542;2022-07-23T02:44:39;8.93;;;3.70;;
44036;SDS011;56187;-37.670;-63.542;2022-07-23T02:47:06;11.70;;;4.05;;
44036;SDS011;56187;-37.670;-63.542;2022-07-23T02:49:33;13.27;;;4.55;;
44036;SDS011;56187;-37.670;-63.542;2022-07-23T02:52:00;20.63;;;4.82;;
44036;SDS011;56187;-37.670;-63.542;2022-07-23T02:54:27;9.20;;;4.40;;
44036;SDS011;56187;-37.670;-63.542;2022-07-23T02:56:55;10.10;;;4.05;;
44036;SDS011;56187;-37.670;-63.542;2022-07-23T02:59:22;13.68;;;4.82;;
44036;SDS011;56187;-37.670;-63.542;2022-07-23T03:01:49;6.93;;;3.30;;
44036;SDS011;56187;-37.670;-63.542;2022-07-23T03:04:16;13.75;;;3.78;;
44036;SDS011;56187;-37.670;-63.542;2022-07-23T03:06:43;17.38;;;4.60;;
44036;SDS011;56187;-37.670;-63.542;2022-07-23T03:09:12;16.35;;;4.35;;
44036;SDS011;56187;-37.670;-63.542;2022-07-23T03:11:39;14.23;;;4.50;;
44036;SDS011;56187;-37.670;-63.542;2022-07-23T03:14:06;13.52;;;3.95;;
44036;SDS011;56187;-37.670;-63.542;2022-07-23T03:16:33;13.15;;;4.32;;
44036;SDS011;56187;-37.670;-63.542;2022-07-23T03:19:00;14.02;;;4.38;;
44036;SDS011;56187;-37.670;-63.542;2022-07-23T03:21:28;7.55;;;4.07;;
44036;SDS011;56187;-37.670;-63.542;2022-07-23T03:23:56;10.32;;;5.10;;
44036;SDS011;56187;-37.670;-63.542;2022-07-23T03:26:24;13.82;;;4.90;;
44036;SDS011;56187;-37.670;-63.542;2022-07-23T03:28:53;15.02;;;5.35;;
44036;SDS011;56187;-37.670;-63.542;2022-07-23T03:31:22;11.75;;;5.40;;
44036;SDS011;56187;-37.670;-63.542;2022-07-23T03:33:50;16.67;;;4.68;;
44036;SDS011;56187;-37.670;-63.542;2022-07-23T03:36:17;13.05;;;5.57;;
44036;SDS011;56187;-37.670;-63.542;2022-07-23T03:38:44;8.63;;;5.05;;
44036;SDS011;56187;-37.670;-63.542;2022-07-23T03:41:11;15.88;;;4.75;;
44036;SDS011;56187;-37.670;-63.542;2022-07-23T03:43:39;7.82;;;4.97;;
44036;SDS011;56187;-37.670;-63.542;2022-07-23T03:46:06;17.02;;;4.97;;
44036;SDS011;56187;-37.670;-63.542;2022-07-23T03:48:35;12.13;;;5.40;;
44036;SDS011;56187;-37.670;-63.542;2022-07-23T03:51:02;14.85;;;6.22;;
44036;SDS011;56187;-37.670;-63.542;2022-07-23T03:53:29;13.73;;;6.07;;
44036;SDS011;56187;-37.670;-63.542;2022-07-23T03:55:56;23.70;;;6.05;;
44036;SDS011;56187;-37.670;-63.542;2022-07-23T03:58:23;14.85;;;6.22;;
44036;SDS011;56187;-37.670;-63.542;2022-07-23T04:00:51;21.45;;;5.85;;
44036;SDS011;56187;-37.670;-63.542;2022-07-23T04:03:18;16.85;;;6.32;;
44036;SDS011;56187;-37.670;-63.542;2022-07-23T04:05:46;19.50;;;6.35;;
44036;SDS011;56187;-37.670;-63.542;2022-07-23T04:08:13;18.45;;;6.25;;
44036;SDS011;56187;-37.670;-63.542;2022-07-23T04:10:40;14.73;;;7.13;;
44036;SDS011;56187;-37.670;-63.542;2022-07-23T04:13:08;13.63;;;6.43;;
44036;SDS011;56187;-37.670;-63.542;2022-07-23T04:15:37;17.33;;;6.57;;
44036;SDS011;56187;-37.670;-63.542;2022-07-23T04:18:05;17.05;;;6.65;;
44036;SDS011;56187;-37.670;-63.542;2022-07-23T04:20:33;14.27;;;5.80;;
44036;SDS011;56187;-37.670;-63.542;2022-07-23T04:23:01;16.00;;;6.63;;
44036;SDS011;56187;-37.670;-63.542;2022-07-23T04:25:28;12.50;;;5.82;;
44036;SDS011;56187;-37.670;-63.542;2022-07-23T04:27:55;18.05;;;7.63;;
44036;SDS011;56187;-37.670;-63.542;2022-07-23T04:30:22;15.43;;;7.07;;
44036;SDS011;56187;-37.670;-63.542;2022-07-23T04:32:49;22.42;;;8.10;;
44036;SDS011;56187;-37.670;-63.542;2022-07-23T04:35:17;21.33;;;6.32;;
44036;SDS011;56187;-37.670;-63.542;2022-07-23T04:37:45;15.38;;;6.65;;
44036;SDS011;56187;-37.670;-63.542;2022-07-23T04:40:13;13.00;;;7.07;;
44036;SDS011;56187;-37.670;-63.542;2022-07-23T04:42:41;12.20;;;5.95;;
44036;SDS011;56187;-37.670;-63.542;2022-07-23T04:45:08;10.77;;;6.47;;
44036;SDS011;56187;-37.670;-63.542;2022-07-23T04:47:35;12.60;;;6.72;;
44036;SDS011;56187;-37.670;-63.542;2022-07-23T04:50:02;17.95;;;6.82;;
44036;SDS011;56187;-37.670;-63.542;2022-07-23T04:52:29;19.17;;;7.60;;
44036;SDS011;56187;-37.670;-63.542;2022-07-23T04:54:56;10.00;;;6.50;;
44036;SDS011;56187;-37.670;-63.542;2022-07-23T04:57:24;13.93;;;6.72;;
44036;SDS011;56187;-37.670;-63.542;2022-07-23T04:59:51;14.77;;;6.53;;
44036;SDS011;56187;-37.670;-63.542;2022-07-23T05:02:18;25.55;;;6.82;;
44036;SDS011;56187;-37.670;-63.542;2022-07-23T05:04:45;13.35;;;5.75;;
44036;SDS011;56187;-37.670;-63.542;2022-07-23T05:07:12;12.90;;;5.97;;
44036;SDS011;56187;-37.670;-63.542;2022-07-23T05:09:39;12.40;;;6.07;;
44036;SDS011;56187;-37.670;-63.542;2022-07-23T05:12:06;13.75;;;6.03;;
44036;SDS011;56187;-37.670;-63.542;2022-07-23T05:14:34;15.00;;;6.50;;
44036;SDS011;56187;-37.670;-63.542;2022-07-23T05:17:01;27.67;;;6.50;;
44036;SDS011;56187;-37.670;-63.542;2022-07-23T05:19:28;14.93;;;5.22;;
44036;SDS011;56187;-37.670;-63.542;2022-07-23T05:21:56;14.13;;;5.43;;
44036;SDS011;56187;-37.670;-63.542;2022-07-23T05:24:24;17.08;;;5.63;;
44036;SDS011;56187;-37.670;-63.542;2022-07-23T05:26:51;13.15;;;5.63;;
44036;SDS011;56187;-37.670;-63.542;2022-07-23T05:29:18;8.65;;;5.60;;
44036;SDS011;56187;-37.670;-63.542;2022-07-23T05:31:45;17.83;;;6.22;;
44036;SDS011;56187;-37.670;-63.542;2022-07-23T05:34:12;12.05;;;6.20;;
44036;SDS011;56187;-37.670;-63.542;2022-07-23T05:36:41;13.10;;;6.00;;
44036;SDS011;56187;-37.670;-63.542;2022-07-23T05:39:09;9.18;;;4.97;;
44036;SDS011;56187;-37.670;-63.542;2022-07-23T05:41:37;16.23;;;6.22;;
44036;SDS011;56187;-37.670;-63.542;2022-07-23T05:44:06;13.27;;;5.97;;
44036;SDS011;56187;-37.670;-63.542;2022-07-23T05:46:35;16.35;;;6.03;;
44036;SDS011;56187;-37.670;-63.542;2022-07-23T05:49:04;12.32;;;6.45;;
44036;SDS011;56187;-37.670;-63.542;2022-07-23T05:51:32;13.50;;;5.97;;
44036;SDS011;56187;-37.670;-63.542;2022-07-23T05:53:59;13.35;;;5.97;;
44036;SDS011;56187;-37.670;-63.542;2022-07-23T05:56:26;17.05;;;6.20;;
44036;SDS011;56187;-37.670;-63.542;2022-07-23T05:58:56;13.77;;;5.78;;
44036;SDS011;56187;-37.670;-63.542;2022-07-23T06:01:23;9.25;;;5.57;;
44036;SDS011;56187;-37.670;-63.542;2022-07-23T06:03:50;14.20;;;5.65;;
44036;SDS011;56187;-37.670;-63.542;2022-07-23T06:06:18;13.48;;;5.95;;
44036;SDS011;56187;-37.670;-63.542;2022-07-23T06:08:45;16.63;;;6.45;;
44036;SDS011;56187;-37.670;-63.542;2022-07-23T06:11:12;16.20;;;6.13;;
44036;SDS011;56187;-37.670;-63.542;2022-07-23T06:13:39;13.45;;;6.60;;
44036;SDS011;56187;-37.670;-63.542;2022-07-23T06:16:06;15.50;;;6.93;;
44036;SDS011;56187;-37.670;-63.542;2022-07-23T06:18:33;12.52;;;5.85;;
44036;SDS011;56187;-37.670;-63.542;2022-07-23T06:21:00;22.98;;;5.40;;
44036;SDS011;56187;-37.670;-63.542;2022-07-23T06:23:27;14.93;;;6.90;;
44036;SDS011;56187;-37.670;-63.542;2022-07-23T06:25:54;14.68;;;6.30;;
44036;SDS011;56187;-37.670;-63.542;2022-07-23T06:28:21;10.43;;;6.45;;
44036;SDS011;56187;-37.670;-63.542;2022-07-23T06:30:48;14.00;;;6.70;;
44036;SDS011;56187;-37.670;-63.542;2022-07-23T06:33:15;14.95;;;6.80;;
44036;SDS011;56187;-37.670;-63.542;2022-07-23T06:35:42;12.43;;;6.60;;
44036;SDS011;56187;-37.670;-63.542;2022-07-23T06:38:09;26.50;;;14.77;;
44036;SDS011;56187;-37.670;-63.542;2022-07-23T06:40:36;44.95;;;27.60;;
44036;SDS011;56187;-37.670;-63.542;2022-07-23T06:43:04;21.65;;;12.30;;
44036;SDS011;56187;-37.670;-63.542;2022-07-23T06:45:32;14.52;;;7.53;;
44036;SDS011;56187;-37.670;-63.542;2022-07-23T06:47:59;14.85;;;7.63;;
44036;SDS011;56187;-37.670;-63.542;2022-07-23T06:50:28;18.08;;;6.60;;
44036;SDS011;56187;-37.670;-63.542;2022-07-23T06:52:55;21.23;;;6.53;;
44036;SDS011;56187;-37.670;-63.542;2022-07-23T06:55:22;14.07;;;7.10;;
44036;SDS011;56187;-37.670;-63.542;2022-07-23T06:57:49;13.70;;;6.78;;
44036;SDS011;56187;-37.670;-63.542;2022-07-23T07:00:16;17.88;;;6.20;;
44036;SDS011;56187;-37.670;-63.542;2022-07-23T07:02:43;18.90;;;6.28;;
44036;SDS011;56187;-37.670;-63.542;2022-07-23T07:05:11;10.65;;;6.38;;
44036;SDS011;56187;-37.670;-63.542;2022-07-23T07:07:38;19.30;;;6.93;;
44036;SDS011;56187;-37.670;-63.542;2022-07-23T07:10:06;20.45;;;6.88;;
44036;SDS011;56187;-37.670;-63.542;2022-07-23T07:12:36;14.35;;;6.63;;
44036;SDS011;56187;-37.670;-63.542;2022-07-23T07:15:05;10.70;;;6.13;;
44036;SDS011;56187;-37.670;-63.542;2022-07-23T07:17:33;9.65;;;5.40;;
44036;SDS011;56187;-37.670;-63.542;2022-07-23T07:20:01;9.73;;;4.68;;
44036;SDS011;56187;-37.670;-63.542;2022-07-23T07:22:28;13.73;;;5.43;;
44036;SDS011;56187;-37.670;-63.542;2022-07-23T07:24:55;13.93;;;5.03;;
44036;SDS011;56187;-37.670;-63.542;2022-07-23T07:27:22;12.05;;;5.72;;
44036;SDS011;56187;-37.670;-63.542;2022-07-23T07:29:50;15.18;;;6.93;;
44036;SDS011;56187;-37.670;-63.542;2022-07-23T07:32:17;18.77;;;5.57;;
44036;SDS011;56187;-37.670;-63.542;2022-07-23T07:34:45;16.83;;;5.80;;
44036;SDS011;56187;-37.670;-63.542;2022-07-23T07:37:12;11.77;;;5.43;;
44036;SDS011;56187;-37.670;-63.542;2022-07-23T07:39:38;25.75;;;6.25;;
44036;SDS011;56187;-37.670;-63.542;2022-07-23T07:42:05;14.15;;;5.20;;
44036;SDS011;56187;-37.670;-63.542;2022-07-23T07:44:32;9.82;;;5.20;;
44036;SDS011;56187;-37.670;-63.542;2022-07-23T07:46:59;12.98;;;5.75;;
44036;SDS011;56187;-37.670;-63.542;2022-07-23T07:49:28;12.10;;;5.35;;
44036;SDS011;56187;-37.670;-63.542;2022-07-23T07:51:55;11.85;;;5.75;;
44036;SDS011;56187;-37.670;-63.542;2022-07-23T07:54:22;30.50;;;7.10;;
44036;SDS011;56187;-37.670;-63.542;2022-07-23T07:56:49;12.93;;;5.93;;
44036;SDS011;56187;-37.670;-63.542;2022-07-23T07:59:16;14.02;;;5.72;;
44036;SDS011;56187;-37.670;-63.542;2022-07-23T08:01:45;11.63;;;5.53;;
44036;SDS011;56187;-37.670;-63.542;2022-07-23T08:04:12;15.13;;;6.18;;
44036;SDS011;56187;-37.670;-63.542;2022-07-23T08:06:40;11.18;;;6.25;;
44036;SDS011;56187;-37.670;-63.542;2022-07-23T08:09:07;15.52;;;6.53;;
44036;SDS011;56187;-37.670;-63.542;2022-07-23T08:11:36;11.40;;;6.07;;
44036;SDS011;56187;-37.670;-63.542;2022-07-23T08:14:06;20.60;;;6.25;;
44036;SDS011;56187;-37.670;-63.542;2022-07-23T08:16:34;13.73;;;6.40;;
44036;SDS011;56187;-37.670;-63.542;2022-07-23T08:19:01;9.05;;;5.50;;
44036;SDS011;56187;-37.670;-63.542;2022-07-23T08:21:29;16.38;;;5.43;;
44036;SDS011;56187;-37.670;-63.542;2022-07-23T08:23:56;18.45;;;6.35;;
44036;SDS011;56187;-37.670;-63.542;2022-07-23T08:26:23;16.25;;;7.15;;
44036;SDS011;56187;-37.670;-63.542;2022-07-23T08:28:50;10.68;;;6.68;;
44036;SDS011;56187;-37.670;-63.542;2022-07-23T08:31:17;17.20;;;6.30;;
44036;SDS011;56187;-37.670;-63.542;2022-07-23T08:33:47;14.45;;;7.75;;
44036;SDS011;56187;-37.670;-63.542;2022-07-23T08:36:14;15.65;;;7.28;;
44036;SDS011;56187;-37.670;-63.542;2022-07-23T08:38:41;11.65;;;8.23;;
44036;SDS011;56187;-37.670;-63.542;2022-07-23T08:41:09;17.60;;;7.43;;
44036;SDS011;56187;-37.670;-63.542;2022-07-23T08:46:06;16.92;;;6.85;;
44036;SDS011;56187;-37.670;-63.542;2022-07-23T08:48:33;13.50;;;7.28;;
44036;SDS011;56187;-37.670;-63.542;2022-07-23T08:51:06;21.25;;;6.88;;
44036;SDS011;56187;-37.670;-63.542;2022-07-23T08:53:35;15.23;;;7.53;;
44036;SDS011;56187;-37.670;-63.542;2022-07-23T08:56:04;13.18;;;6.97;;
44036;SDS011;56187;-37.670;-63.542;2022-07-23T08:58:31;12.98;;;8.02;;
44036;SDS011;56187;-37.670;-63.542;2022-07-23T09:00:59;16.02;;;8.48;;
44036;SDS011;56187;-37.670;-63.542;2022-07-23T09:03:27;16.13;;;7.68;;
44036;SDS011;56187;-37.670;-63.542;2022-07-23T09:05:56;11.35;;;7.13;;
44036;SDS011;56187;-37.670;-63.542;2022-07-23T09:08:25;22.20;;;9.00;;
44036;SDS011;56187;-37.670;-63.542;2022-07-23T09:16:12;15.15;;;8.10;;
44036;SDS011;56187;-37.670;-63.542;2022-07-23T09:18:46;17.33;;;9.20;;
44036;SDS011;56187;-37.670;-63.542;2022-07-23T09:23:44;15.98;;;9.07;;
44036;SDS011;56187;-37.670;-63.542;2022-07-23T09:28:53;20.48;;;8.90;;
44036;SDS011;56187;-37.670;-63.542;2022-07-23T09:32:07;18.45;;;9.65;;
44036;SDS011;56187;-37.670;-63.542;2022-07-23T09:34:31;18.10;;;9.90;;
44036;SDS011;56187;-37.670;-63.542;2022-07-23T09:37:13;17.98;;;11.10;;
44036;SDS011;56187;-37.670;-63.542;2022-07-23T09:39:43;17.10;;;11.07;;
44036;SDS011;56187;-37.670;-63.542;2022-07-23T09:44:46;19.85;;;11.88;;
44036;SDS011;56187;-37.670;-63.542;2022-07-23T09:47:14;20.08;;;11.77;;
44036;SDS011;56187;-37.670;-63.542;2022-07-23T09:50:01;28.45;;;13.23;;
44036;SDS011;56187;-37.670;-63.542;2022-07-23T09:52:32;19.08;;;12.13;;
44036;SDS011;56187;-37.670;-63.542;2022-07-23T09:55:02;24.00;;;12.70;;
44036;SDS011;56187;-37.670;-63.542;2022-07-23T09:57:31;25.90;;;13.18;;
44036;SDS011;56187;-37.670;-63.542;2022-07-23T10:00:00;27.80;;;13.88;;
44036;SDS011;56187;-37.670;-63.542;2022-07-23T10:02:31;25.83;;;14.00;;
44036;SDS011;56187;-37.670;-63.542;2022-07-23T10:05:01;23.65;;;13.13;;
44036;SDS011;56187;-37.670;-63.542;2022-07-23T10:07:34;20.23;;;11.55;;
44036;SDS011;56187;-37.670;-63.542;2022-07-23T10:10:07;22.70;;;13.98;;
44036;SDS011;56187;-37.670;-63.542;2022-07-23T10:12:35;28.17;;;14.60;;
44036;SDS011;56187;-37.670;-63.542;2022-07-23T10:15:05;28.75;;;15.20;;
44036;SDS011;56187;-37.670;-63.542;2022-07-23T10:17:33;27.58;;;15.68;;
44036;SDS011;56187;-37.670;-63.542;2022-07-23T10:20:01;24.88;;;16.02;;
44036;SDS011;56187;-37.670;-63.542;2022-07-23T10:22:35;24.37;;;14.13;;
44036;SDS011;56187;-37.670;-63.542;2022-07-23T10:25:08;25.20;;;12.63;;
44036;SDS011;56187;-37.670;-63.542;2022-07-23T10:28:33;21.95;;;14.15;;
44036;SDS011;56187;-37.670;-63.542;2022-07-23T10:31:56;29.33;;;15.32;;
44036;SDS011;56187;-37.670;-63.542;2022-07-23T10:34:49;31.35;;;16.58;;
44036;SDS011;56187;-37.670;-63.542;2022-07-23T10:40:18;30.10;;;16.40;;
44036;SDS011;56187;-37.670;-63.542;2022-07-23T10:42:48;24.67;;;15.93;;
44036;SDS011;56187;-37.670;-63.542;2022-07-23T10:45:34;34.47;;;17.17;;
44036;SDS011;56187;-37.670;-63.542;2022-07-23T10:48:17;32.70;;;16.27;;
44036;SDS011;56187;-37.670;-63.542;2022-07-23T10:51:10;35.42;;;18.15;;
44036;SDS011;56187;-37.670;-63.542;2022-07-23T10:59:23;35.88;;;20.65;;
44036;SDS011;56187;-37.670;-63.542;2022-07-23T11:01:50;33.20;;;19.73;;
44036;SDS011;56187;-37.670;-63.542;2022-07-23T11:04:17;38.88;;;21.00;;
44036;SDS011;56187;-37.670;-63.542;2022-07-23T11:09:26;34.33;;;21.77;;
44036;SDS011;56187;-37.670;-63.542;2022-07-23T11:15:08;38.90;;;22.48;;
44036;SDS011;56187;-37.670;-63.542;2022-07-23T11:17:57;41.33;;;22.17;;
44036;SDS011;56187;-37.670;-63.542;2022-07-23T11:20:28;43.33;;;23.65;;
44036;SDS011;56187;-37.670;-63.542;2022-07-23T11:22:56;43.08;;;23.48;;
44036;SDS011;56187;-37.670;-63.542;2022-07-23T11:27:54;46.45;;;26.63;;
44036;SDS011;56187;-37.670;-63.542;2022-07-23T11:35:43;48.70;;;26.83;;
44036;SDS011;56187;-37.670;-63.542;2022-07-23T11:38:15;42.20;;;26.38;;
44036;SDS011;56187;-37.670;-63.542;2022-07-23T11:40:51;53.08;;;27.73;;
44036;SDS011;56187;-37.670;-63.542;2022-07-23T11:43:20;49.45;;;27.92;;
44036;SDS011;56187;-37.670;-63.542;2022-07-23T11:45:49;41.70;;;28.15;;
44036;SDS011;56187;-37.670;-63.542;2022-07-23T11:48:23;45.88;;;28.25;;
44036;SDS011;56187;-37.670;-63.542;2022-07-23T11:50:50;49.42;;;29.75;;
44036;SDS011;56187;-37.670;-63.542;2022-07-23T11:53:22;51.20;;;30.10;;
44036;SDS011;56187;-37.670;-63.542;2022-07-23T11:56:09;50.42;;;27.67;;
44036;SDS011;56187;-37.670;-63.542;2022-07-23T11:58:37;53.00;;;29.67;;
44036;SDS011;56187;-37.670;-63.542;2022-07-23T12:01:05;52.42;;;30.90;;
44036;SDS011;56187;-37.670;-63.542;2022-07-23T12:03:32;51.63;;;30.58;;
44036;SDS011;56187;-37.670;-63.542;2022-07-23T12:06:00;58.50;;;31.02;;
44036;SDS011;56187;-37.670;-63.542;2022-07-23T12:08:27;43.15;;;29.67;;
44036;SDS011;56187;-37.670;-63.542;2022-07-23T12:10:55;58.10;;;30.90;;
44036;SDS011;56187;-37.670;-63.542;2022-07-23T12:13:22;46.15;;;30.75;;
44036;SDS011;56187;-37.670;-63.542;2022-07-23T12:15:51;56.15;;;28.88;;
44036;SDS011;56187;-37.670;-63.542;2022-07-23T12:18:20;45.28;;;30.17;;
44036;SDS011;56187;-37.670;-63.542;2022-07-23T12:20:53;60.08;;;31.70;;
44036;SDS011;56187;-37.670;-63.542;2022-07-23T12:23:23;60.47;;;31.40;;
44036;SDS011;56187;-37.670;-63.542;2022-07-23T12:25:51;54.50;;;30.67;;
44036;SDS011;56187;-37.670;-63.542;2022-07-23T12:28:20;54.22;;;31.67;;
44036;SDS011;56187;-37.670;-63.542;2022-07-23T12:31:03;58.85;;;32.80;;
44036;SDS011;56187;-37.670;-63.542;2022-07-23T12:36:02;49.17;;;35.70;;
44036;SDS011;56187;-37.670;-63.542;2022-07-23T12:38:43;51.00;;;33.85;;
44036;SDS011;56187;-37.670;-63.542;2022-07-23T12:41:50;41.58;;;31.65;;
44036;SDS011;56187;-37.670;-63.542;2022-07-23T12:44:19;55.58;;;33.25;;
44036;SDS011;56187;-37.670;-63.542;2022-07-23T12:46:51;53.92;;;34.17;;
44036;SDS011;56187;-37.670;-63.542;2022-07-23T12:49:28;50.08;;;32.33;;
44036;SDS011;56187;-37.670;-63.542;2022-07-23T12:51:55;54.75;;;33.95;;
44036;SDS011;56187;-37.670;-63.542;2022-07-23T12:54:26;43.90;;;31.23;;
44036;SDS011;56187;-37.670;-63.542;2022-07-23T12:56:54;47.20;;;32.58;;
44036;SDS011;56187;-37.670;-63.542;2022-07-23T12:59:22;48.08;;;33.45;;
44036;SDS011;56187;-37.670;-63.542;2022-07-23T13:01:56;43.97;;;32.17;;
44036;SDS011;56187;-37.670;-63.542;2022-07-23T13:04:26;49.72;;;33.88;;
44036;SDS011;56187;-37.670;-63.542;2022-07-23T13:06:54;45.00;;;33.90;;
44036;SDS011;56187;-37.670;-63.542;2022-07-23T13:09:30;46.33;;;33.05;;
44036;SDS011;56187;-37.670;-63.542;2022-07-23T13:14:26;47.30;;;32.90;;
44036;SDS011;56187;-37.670;-63.542;2022-07-23T13:16:54;48.80;;;33.63;;
44036;SDS011;56187;-37.670;-63.542;2022-07-23T13:19:21;53.05;;;32.40;;
44036;SDS011;56187;-37.670;-63.542;2022-07-23T13:21:48;52.92;;;34.25;;
44036;SDS011;56187;-37.670;-63.542;2022-07-23T13:24:15;49.80;;;33.28;;
44036;SDS011;56187;-37.670;-63.542;2022-07-23T13:26:42;47.20;;;31.40;;
44036;SDS011;56187;-37.670;-63.542;2022-07-23T13:29:11;46.20;;;31.43;;
44036;SDS011;56187;-37.670;-63.542;2022-07-23T13:31:40;45.58;;;32.78;;
44036;SDS011;56187;-37.670;-63.542;2022-07-23T13:34:07;44.72;;;30.55;;
44036;SDS011;56187;-37.670;-63.542;2022-07-23T13:36:37;40.22;;;30.52;;
44036;SDS011;56187;-37.670;-63.542;2022-07-23T13:39:06;40.13;;;29.92;;
44036;SDS011;56187;-37.670;-63.542;2022-07-23T13:41:33;36.42;;;27.63;;
44036;SDS011;56187;-37.670;-63.542;2022-07-23T13:44:00;40.92;;;31.98;;
44036;SDS011;56187;-37.670;-63.542;2022-07-23T13:46:29;41.80;;;31.45;;
44036;SDS011;56187;-37.670;-63.542;2022-07-23T13:48:56;43.45;;;31.75;;
44036;SDS011;56187;-37.670;-63.542;2022-07-23T13:51:23;40.95;;;31.85;;
44036;SDS011;56187;-37.670;-63.542;2022-07-23T13:53:53;46.47;;;32.97;;
44036;SDS011;56187;-37.670;-63.542;2022-07-23T13:56:20;42.33;;;30.77;;
44036;SDS011;56187;-37.670;-63.542;2022-07-23T13:58:47;47.95;;;31.58;;
44036;SDS011;56187;-37.670;-63.542;2022-07-23T14:01:14;43.65;;;31.70;;
44036;SDS011;56187;-37.670;-63.542;2022-07-23T14:03:41;38.95;;;30.77;;
44036;SDS011;56187;-37.670;-63.542;2022-07-23T14:06:08;43.15;;;32.33;;
44036;SDS011;56187;-37.670;-63.542;2022-07-23T14:08:35;41.08;;;32.20;;
44036;SDS011;56187;-37.670;-63.542;2022-07-23T14:11:02;42.50;;;34.33;;
44036;SDS011;56187;-37.670;-63.542;2022-07-23T14:13:29;51.80;;;35.92;;
44036;SDS011;56187;-37.670;-63.542;2022-07-23T14:15:56;56.15;;;33.90;;
44036;SDS011;56187;-37.670;-63.542;2022-07-23T14:18:23;56.17;;;35.88;;
44036;SDS011;56187;-37.670;-63.542;2022-07-23T14:20:50;43.85;;;34.38;;
44036;SDS011;56187;-37.670;-63.542;2022-07-23T14:23:18;43.83;;;35.08;;
44036;SDS011;56187;-37.670;-63.542;2022-07-23T14:25:48;42.22;;;32.35;;
44036;SDS011;56187;-37.670;-63.542;2022-07-23T14:28:15;39.13;;;31.95;;
44036;SDS011;56187;-37.670;-63.542;2022-07-23T14:30:44;46.38;;;29.05;;
44036;SDS011;56187;-37.670;-63.542;2022-07-23T14:33:11;39.90;;;29.83;;
44036;SDS011;56187;-37.670;-63.542;2022-07-23T14:35:39;39.72;;;29.45;;
44036;SDS011;56187;-37.670;-63.542;2022-07-23T14:38:07;41.05;;;26.73;;
44036;SDS011;56187;-37.670;-63.542;2022-07-23T14:40:36;35.45;;;26.88;;
44036;SDS011;56187;-37.670;-63.542;2022-07-23T14:43:03;29.73;;;25.95;;
44036;SDS011;56187;-37.670;-63.542;2022-07-23T14:45:30;33.50;;;25.40;;
44036;SDS011;56187;-37.670;-63.542;2022-07-23T14:47:59;38.45;;;26.33;;